Data for 08/04/2007

Time Sea-Level Adjusted Pressure Absolute Pressure Temperature Relative Humidity Dew Point   
(mb) (inHg) (mb) (inHg) (C) (F) (%) (C) (F)
00:05 1017 30.03 847 25.01 20.9 69.7 40 6.9 44.4
00:10 1017 30.03 847 25.01 20.9 69.7 41 7.3 45.2
00:15 1018 30.06 847 25.01 20.9 69.5 45 8.6 47.4
00:20 1018 30.06 847 25.01 20.8 69.4 41 7.1 44.8
00:25 1018 30.06 847 25.01 20.7 69.2 42 7.3 45.2
00:30 1018 30.06 847 25.01 20.7 69.3 40 6.8 44.2
00:35 1018 30.06 847 25.01 20.7 69.3 40 6.7 44
00:40 1018 30.06 847 25.01 20.9 69.7 39 6.6 43.9
00:45 1018 30.06 847 25.01 20.8 69.4 40 6.9 44.5
00:50 1018 30.06 847 25.01 20.4 68.7 43 7.7 45.8
00:55 1018 30.06 847 25.01 20.1 68.1 43 7.1 44.8
01:00 1018 30.06 847 25.01 20.1 68.1 43 7.1 44.8
01:05 1018 30.06 847 25.01 20 68.1 43 7.1 44.8
01:10 1018 30.06 847 25.01 20 67.9 43 7.1 44.7
01:15 1018 30.06 847 25.01 19.9 67.8 43 7.1 44.7
01:20 1018 30.06 847 25.01 19.7 67.5 46 8.1 46.5
01:25 1018 30.06 847 25.01 19.1 66.3 49 8.1 46.6
01:30 1018 30.06 847 25.01 18.8 65.8 49 8 46.4
01:35 1018 30.06 847 25.01 18.5 65.2 55 9.3 48.7
01:40 1018 30.06 847 25.01 18.3 65 53 8.8 47.8
01:45 1018 30.06 847 25.01 18.3 65 50 7.7 45.9
01:50 1018 30.06 847 25.01 18.7 65.6 50 8.1 46.5
01:55 1018 30.06 847 25.01 18.5 65.4 50 8.1 46.5
02:00 1018 30.06 847 25.01 18.4 65.1 52 8.5 47.3
02:05 1018 30.06 847 25.01 18.1 64.5 54 8.7 47.6
02:10 1018 30.06 847 25.01 18.4 65.1 51 8.2 46.8
02:15 1018 30.06 847 25.01 17.9 64.2 53 8.2 46.7
02:20 1018 30.06 847 25.01 17.9 64.2 52 8.1 46.5
02:25 1018 30.06 847 25.01 17.7 63.9 53 8.2 46.7
02:30 1018 30.06 847 25.01 17.7 63.8 56 9 48.2
02:35 1018 30.06 847 25.01 17.9 64.2 50 7.4 45.4
02:40 1018 30.06 847 25.01 18.1 64.6 50 7.7 45.8
02:45 1018 30.06 847 25.01 18.1 64.5 58 9.7 49.5
02:50 1018 30.06 847 25.01 17.8 64 53 8.3 46.9
02:55 1018 30.06 847 25.01 17.4 63.3 53 7.7 45.9
03:00 1018 30.06 847 25.01 17.3 63.2 53 7.9 46.2
03:05 1018 30.06 847 25.01 16.9 62.5 55 7.9 46.2
03:10 1018 30.06 847 25.01 16.8 62.3 53 7.3 45.2
03:15 1018 30.06 847 25.01 17 62.5 52 7 44.6
03:20 1018 30.06 847 25.01 16.9 62.5 53 7.3 45.1
03:25 1018 30.06 847 25.01 16.8 62.3 53 7.2 45
03:30 1018 30.06 847 25.01 16.5 61.8 55 7.5 45.6
03:35 1018 30.06 847 25.01 16.6 61.8 55 7.5 45.5
03:40 1018 30.06 847 25.01 16.9 62.3 56 8.1 46.7
03:45 1018 30.06 847 25.01 17 62.6 53 7.3 45.2
03:50 1018 30.06 847 25.01 17 62.6 53 7.3 45.2
03:55 1018 30.06 847 25.01 16.7 62.1 55 7.8 46.1
04:00 1018 30.06 847 25.01 16.9 62.3 52 7.2 44.9
04:05 1018 30.06 847 25.01 16.7 62.1 61 9.3 48.8
04:10 1018 30.06 847 25.01 16.6 61.9 55 7.6 45.7
04:15 1018 30.06 847 25.01 16.4 61.5 53 6.7 44.1
04:20 1018 30.06 847 25.01 16.5 61.6 55 7.6 45.6
04:25 1018 30.06 847 25.01 16.1 60.9 57 7.6 45.7
04:30 1018 30.06 847 25.01 15.9 60.7 58 7.7 45.8
04:35 1018 30.06 847 25.01 15.8 60.4 58 7.7 45.9
04:40 1018 30.06 847 25.01 15.6 60.1 60 7.8 46.1
04:45 1018 30.06 847 25.01 15.4 59.7 60 7.9 46.2
04:50 1018 30.06 847 25.01 15.3 59.5 61 7.8 46.1
04:55 1018 30.06 847 25.01 15 59 63 8.1 46.6
05:00 1018 30.06 847 25.01 14.3 57.8 66 8.2 46.7
05:05 1018 30.06 847 25.01 14 57.1 66 7.8 46.1
05:10 1018 30.06 848 25.04 14 57.2 64 7.5 45.4
05:15 1018 30.06 848 25.04 14.6 58.2 61 7.1 44.8
05:20 1018 30.06 848 25.04 15.1 59.1 59 7.1 44.8
05:25 1018 30.06 848 25.04 15.1 59.2 58 7 44.6
05:30 1018 30.06 848 25.04 15.3 59.6 58 7.1 44.7
05:35 1018 30.06 848 25.04 15.2 59.4 57 6.9 44.4
05:40 1018 30.06 848 25.04 15.6 60.1 55 6.8 44.3
05:45 1018 30.06 848 25.04 15.4 59.8 57 7.1 44.8
05:50 1018 30.06 848 25.04 15.3 59.5 59 7.3 45.1
05:55 1018 30.06 848 25.04 14.9 58.9 60 7.4 45.2
06:00 1019 30.09 848 25.04 14.8 58.6 59 7 44.5
06:05 1019 30.09 848 25.04 14.9 58.8 59 6.9 44.5
06:10 1019 30.09 848 25.04 15.1 59.2 57 6.7 44.1
06:15 1019 30.09 848 25.04 15.2 59.4 58 7 44.6
06:20 1019 30.09 848 25.04 15 59.1 58 6.9 44.4
06:25 1019 30.09 848 25.04 15 59.1 58 7 44.5
06:30 1019 30.09 848 25.04 14.9 58.8 60 7.2 44.9
06:35 1019 30.09 848 25.04 14.5 58 61 7 44.6
06:40 1019 30.09 848 25.04 14.5 58.2 58 6.6 43.8
06:45 1019 30.09 848 25.04 15 59 58 6.9 44.4
06:50 1019 30.09 848 25.04 15 59.1 58 6.8 44.3
06:55 1019 30.09 848 25.04 15 58.9 59 7 44.6
07:00 1019 30.09 848 25.04 15 58.9 58 6.9 44.4
07:05 1019 30.09 848 25.04 15.1 59.1 58 6.9 44.3
07:10 1019 30.09 848 25.04 15.2 59.4 57 6.8 44.3
07:15 1019 30.09 848 25.04 15.6 60 56 6.9 44.4
07:20 1019 30.09 848 25.04 15.8 60.5 56 7.1 44.9
07:25 1019 30.09 848 25.04 15.9 60.6 56 7.2 45
07:30 1019 30.09 848 25.04 15.9 60.6 56 7.1 44.9
07:35 1019 30.09 848 25.04 16 60.8 55 7.1 44.7
07:40 1019 30.09 848 25.04 16.2 61.2 55 7.2 44.9
07:45 1019 30.09 848 25.04 16.3 61.4 56 7.5 45.5
07:50 1019 30.09 848 25.04 16.3 61.3 56 7.6 45.7
07:55 1019 30.09 848 25.04 16.4 61.6 56 7.7 45.9
08:00 1019 30.09 848 25.04 16.7 62.1 55 7.6 45.7
08:05 1019 30.09 848 25.04 16.9 62.4 54 7.7 45.8
08:10 1019 30.09 848 25.04 17 62.6 54 7.8 46.1
08:15 1019 30.09 848 25.04 17.2 63 54 8 46.4
08:20 1019 30.09 848 25.04 17.5 63.5 55 8.4 47.1
08:25 1019 30.09 848 25.04 17.5 63.4 56 8.8 47.8
08:30 1019 30.09 848 25.04 17.6 63.7 56 8.9 47.9
08:35 1019 30.09 848 25.04 18.3 64.9 51 8.1 46.5
08:40 1019 30.09 848 25.04 18.6 65.4 52 8.6 47.5
08:45 1019 30.09 848 25.04 18.8 65.8 52 8.7 47.7
08:50 1019 30.09 848 25.04 19 66.1 51 8.8 47.9
08:55 1018 30.06 848 25.04 19.7 67.5 48 8.5 47.3
09:00 1018 30.06 848 25.04 20.4 68.7 48 9 48.3
09:05 1018 30.06 848 25.04 20.8 69.4 47 9.2 48.6
09:10 1018 30.06 848 25.04 20.9 69.5 47 9.3 48.8
09:15 1018 30.06 848 25.04 20.6 69 49 9.5 49.1
09:20 1018 30.06 848 25.04 20.7 69.3 47 9.2 48.5
09:25 1018 30.06 847 25.01 21.1 70 47 9.5 49.1
09:30 1018 30.06 848 25.04 21.5 70.6 47 10 50
09:35 1019 30.09 848 25.04 21.9 71.4 45 9.5 49.1
09:40 1019 30.09 848 25.04 22 71.5 45 9.6 49.3
09:45 1019 30.09 848 25.04 21.3 70.4 45 9.2 48.6
09:50 1019 30.09 849 25.07 21 69.9 47 9.6 49.2
09:55 1019 30.09 848 25.04 20.7 69.3 48 9.4 48.9
10:00 1019 30.09 848 25.04 20.9 69.5 47 9.1 48.5
10:05 1018 30.06 848 25.04 20.7 69.2 47 9.1 48.5
10:10 1018 30.06 847 25.01 20.5 68.8 50 9.8 49.7
10:15 1018 30.06 847 25.01 20.3 68.5 50 9.6 49.3
10:20 1018 30.06 847 25.01 20.4 68.7 46 8.7 47.6
10:25 1018 30.06 847 25.01 21 69.9 46 9.1 48.4
10:30 1018 30.06 847 25.01 21.9 71.3 38 7 44.6
10:35 1018 30.06 847 25.01 23.2 73.8 34 6.8 44.3
10:40 1018 30.06 848 25.04 24.7 76.4 32 7.1 44.8
10:45 1019 30.09 848 25.04 25.1 77.2 32 7.6 45.6
10:50 1019 30.09 848 25.04 24.8 76.6 36 9.1 48.4
10:55 1019 30.09 848 25.04 23.8 74.8 38 8.8 47.9
11:00 1019 30.09 848 25.04 23.6 74.6 38 8.5 47.3
11:05 1019 30.09 848 25.04 23.8 74.8 37 8.6 47.5
11:10 1019 30.09 848 25.04 23.5 74.3 38 8.5 47.2
11:15 1019 30.09 848 25.04 23 73.3 43 9.8 49.7
11:20 1019 30.09 848 25.04 22.5 72.6 43 9.7 49.4
11:25 1019 30.09 848 25.04 22.5 72.5 42 9.2 48.6
11:30 1019 30.09 848 25.04 22.5 72.4 42 9.1 48.4
11:35 1019 30.09 848 25.04 21.7 71.1 48 10.5 50.9
11:40 1018 30.06 848 25.04 21.5 70.7 48 10.1 50.1
11:45 1018 30.06 848 25.04 21.6 70.8 48 10.1 50.2
11:50 1018 30.06 847 25.01 22.2 72 44 9.5 49.1
11:55 1018 30.06 847 25.01 23.6 74.4 39 8.9 48.1
12:00 1018 30.06 847 25.01 24.5 76.1 37 8.9 48.1
12:05 1018 30.06 847 25.01 24.7 76.5 35 8.4 47.1
12:10 1018 30.06 847 25.01 25 77.1 30 6.6 43.9
12:15 1018 30.06 847 25.01 24.9 76.8 28 5.6 42.1
12:20 1018 30.06 847 25.01 25.8 78.4 31 7.5 45.6
12:25 1017 30.03 847 25.01 26 78.7 31 7.7 45.9
12:30 1017 30.03 847 25.01 26.8 80.2 28 7 44.5
12:35 1017 30.03 846 24.98 27.5 81.6 23 5 41
12:40 1017 30.03 846 24.98 27.7 81.8 24 5.6 42.1
12:45 1017 30.03 846 24.98 27.7 81.9 20 3.3 37.9
12:50 1017 30.03 846 24.98 28.1 82.5 21 4.3 39.7
12:55 1017 30.03 846 24.98 28 82.4 21 4 39.1
13:00 1017 30.03 846 24.98 28.6 83.4 20 3.8 38.9
13:05 1017 30.03 846 24.98 29.1 84.5 20 3.9 39.1
13:10 1017 30.03 846 24.98 30 85.9 18 3.6 38.5
13:15 1016 30 846 24.98 29.8 85.6 18 3.3 38
13:20 1016 30 845 24.95 30 86 18 3.6 38.5
13:25 1016 30 845 24.95 30.6 87.1 15 1.8 35.3
13:30 1016 30 845 24.95 30.7 87.3 16 2 35.7
13:35 1016 30 845 24.95 30.6 87 16 2.4 36.3
13:40 1016 30 845 24.95 30.6 87.1 15 1.2 34.2
13:45 1016 30 845 24.95 30 86 17 2.3 36.1
13:50 1015 29.97 845 24.95 29.8 85.7 17 2.8 37
13:55 1015 29.97 845 24.95 30.7 87.3 14 0.9 33.7
14:00 1015 29.97 844 24.92 31.3 88.3 14 1.2 34.2
14:05 1015 29.97 844 24.92 31 87.8 14 0.6 33
14:10 1015 29.97 844 24.92 30.5 86.9 14 0.7 33.2
14:15 1015 29.97 844 24.92 30.2 86.3 14 0.2 32.3
14:20 1015 29.97 844 24.92 30.1 86.1 15 0.5 33
14:25 1015 29.97 844 24.92 29.7 85.4 14 0.2 32.3
14:30 1015 29.97 844 24.92 29.6 85.2 15 0.4 32.7
14:35 1015 29.97 844 24.92 29.1 84.4 16 0.7 33.2
14:40 1015 29.97 844 24.92 28.6 83.5 16 0.3 32.5
14:45 1015 29.97 844 24.92 27.6 81.7 16 -0.5 31
14:50 1015 29.97 844 24.92 26.7 80.1 17 0.3 32.5
14:55 1015 29.97 844 24.92 26.6 79.8 18 0.4 32.7
15:00 1015 29.97 844 24.92 25.9 78.6 19 0.8 33.4
15:05 1015 29.97 845 24.95 25.3 77.6 21 1.7 35
15:10 1015 29.97 845 24.95 25 76.9 21 1.6 34.8
15:15 1016 30 845 24.95 24.6 76.2 23 2.4 36.2
15:20 1016 30 845 24.95 24.3 75.7 24 2.5 36.5
15:25 1016 30 845 24.95 24.1 75.4 26 3.8 38.9
15:30 1016 30 845 24.95 23.6 74.4 27 3.9 39
15:35 1016 30 845 24.95 23.4 74.2 27 3.4 38.1
15:40 1016 30 846 24.98 23.6 74.4 26 3.3 37.9
15:45 1016 30 845 24.95 23.6 74.4 29 4.5 40.1
15:50 1016 30 846 24.98 23 73.5 31 5.1 41.2
15:55 1017 30.03 846 24.98 22.2 72 35 6.4 43.6
16:00 1017 30.03 846 24.98 21.5 70.6 38 6.7 44.1
16:05 1017 30.03 846 24.98 20.5 68.9 44 8 46.5
16:10 1017 30.03 846 24.98 21.2 70.1 40 7.4 45.3
16:15 1017 30.03 846 24.98 19.6 67.3 55 10.3 50.6
16:20 1018 30.06 847 25.01 18.2 64.8 58 10 50
16:25 1018 30.06 847 25.01 18.2 64.7 54 8.9 48
16:30 1018 30.06 847 25.01 18.5 65.4 49 7.7 45.9
16:35 1018 30.06 847 25.01 19 66.3 50 8.6 47.4
16:40 1018 30.06 847 25.01 19.3 66.8 47 7.7 45.9
16:45 1017 30.03 847 25.01 19.6 67.2 47 8.1 46.6
16:50 1017 30.03 846 24.98 19.8 67.6 46 8 46.5
16:55 1017 30.03 846 24.98 19.9 67.7 46 8.1 46.6
17:00 1017 30.03 846 24.98 20 68 45 7.8 46.1
17:05 1017 30.03 846 24.98 20.3 68.6 44 7.7 45.8
17:10 1017 30.03 846 24.98 20.9 69.5 41 7.4 45.2
17:15 1017 30.03 846 24.98 21.1 70 39 7 44.5
17:20 1017 30.03 846 24.98 21.4 70.5 38 6.6 43.8
17:25 1017 30.03 846 24.98 21.6 70.8 37 6.6 43.8
17:30 1017 30.03 846 24.98 22.1 71.7 35 6.2 43.1
17:35 1017 30.03 846 24.98 22.1 71.8 35 5.9 42.7
17:40 1016 30 846 24.98 22.6 72.6 34 6.2 43.1
17:45 1016 30 846 24.98 23.1 73.5 34 6.8 44.2
17:50 1016 30 845 24.95 23.3 74 33 6.3 43.4
17:55 1016 30 845 24.95 23.5 74.3 32 6.1 43
18:00 1016 30 845 24.95 23.6 74.5 32 6.2 43.2
18:05 1016 30 845 24.95 23.9 74.9 31 6 42.8
18:10 1016 30 845 24.95 23.9 75.1 32 6.5 43.8
18:15 1016 30 845 24.95 24.3 75.7 32 6.8 44.2
18:20 1016 30 845 24.95 24.2 75.6 33 7 44.6
18:25 1016 30 845 24.95 24.1 75.3 33 6.8 44.3
18:30 1016 30 845 24.95 24 75.2 33 7 44.6
18:35 1016 30 845 24.95 24 75.2 33 6.9 44.5
18:40 1016 30 845 24.95 23.9 75 33 6.8 44.2
18:45 1016 30 845 24.95 23.9 75.1 32 6.6 43.9
18:50 1016 30 845 24.95 24 75.1 33 7 44.6
18:55 1016 30 845 24.95 24 75.2 33 7 44.6
19:00 1016 30 845 24.95 23.8 74.8 34 7.1 44.7
19:05 1016 30 845 24.95 23.7 74.6 34 7.2 44.9
19:10 1015 29.97 845 24.95 23.5 74.3 34 7 44.5
19:15 1015 29.97 845 24.95 23.5 74.3 34 7 44.6
19:20 1015 29.97 845 24.95 23.5 74.4 34 7.1 44.8
19:25 1015 29.97 845 24.95 23.4 74.2 34 7.1 44.7
19:30 1015 29.97 845 24.95 23.4 74.1 34 7 44.7
19:35 1015 29.97 845 24.95 23.3 73.9 35 7 44.7
19:40 1015 29.97 845 24.95 23.2 73.8 35 7.2 44.9
19:45 1015 29.97 845 24.95 23.1 73.6 36 7.3 45.1
19:50 1015 29.97 845 24.95 23.1 73.6 36 7.3 45.2
19:55 1015 29.97 845 24.95 23 73.4 36 7.4 45.4
20:00 1015 29.97 845 24.95 22.9 73.2 37 7.5 45.6
20:05 1015 29.97 844 24.92 22.8 73.1 36 7.3 45.1
20:10 1015 29.97 844 24.92 22.7 72.8 37 7.5 45.4
20:15 1015 29.97 845 24.95 22.5 72.6 37 7.4 45.3
20:20 1015 29.97 845 24.95 22.4 72.3 37 7.4 45.2
20:25 1015 29.97 845 24.95 22.3 72.1 37 7.2 45
20:30 1015 29.97 845 24.95 22.2 72 37 6.9 44.5
20:35 1015 29.97 845 24.95 22.1 71.8 37 7 44.5
20:40 1015 29.97 845 24.95 22 71.6 38 7.1 44.7
20:45 1015 29.97 845 24.95 21.8 71.3 38 7.2 44.9
20:50 1015 29.97 845 24.95 21.7 71 38 7.1 44.7
20:55 1015 29.97 845 24.95 21.6 70.9 38 7 44.6
21:00 1015 29.97 845 24.95 21.6 70.8 38 7 44.6
21:05 1015 29.97 845 24.95 21.4 70.6 39 7 44.7
21:10 1016 30 845 24.95 21.3 70.3 39 6.8 44.3
21:15 1016 30 845 24.95 21.2 70.2 39 6.9 44.4
21:20 1016 30 845 24.95 21.2 70.1 39 6.9 44.5
21:25 1016 30 845 24.95 21.1 70 39 6.8 44.3
21:30 1016 30 845 24.95 21.3 70.3 39 6.9 44.5
21:35 1016 30 845 24.95 21.3 70.3 39 7 44.6
21:40 1016 30 845 24.95 21.2 70.2 40 7.2 45
21:45 1016 30 845 24.95 21.2 70.1 40 7.3 45.2
21:50 1016 30 846 24.98 21 69.8 40 7 44.6
21:55 1017 30.03 846 24.98 20.9 69.6 40 6.9 44.4
22:00 1017 30.03 846 24.98 20.9 69.7 40 7 44.6
22:05 1017 30.03 846 24.98 20.8 69.4 41 7.3 45.1
22:10 1017 30.03 846 24.98 20.8 69.4 42 7.4 45.3
22:15 1017 30.03 846 24.98 20.8 69.4 42 7.4 45.3
22:20 1017 30.03 846 24.98 20.9 69.6 40 7 44.6
22:25 1017 30.03 846 24.98 20.9 69.5 41 7.1 44.8
22:30 1017 30.03 846 24.98 20.4 68.7 43 7.7 45.8
22:35 1017 30.03 846 24.98 20 68 45 7.8 46.1
22:40 1017 30.03 846 24.98 19.8 67.7 45 7.7 45.9
22:45 1017 30.03 846 24.98 19.8 67.7 46 8 46.4
22:50 1017 30.03 846 24.98 19.7 67.5 46 7.8 46
22:55 1017 30.03 846 24.98 19.8 67.6 49 8.8 47.8
23:00 1017 30.03 846 24.98 19.6 67.3 46 7.8 46.1
23:05 1016 30 846 24.98 19.5 67 47 7.9 46.2
23:10 1017 30.03 846 24.98 19.1 66.4 48 8.1 46.6
23:15 1017 30.03 846 24.98 18.6 65.5 52 8.6 47.5
23:20 1017 30.03 846 24.98 18.4 65.1 50 8 46.5
23:25 1017 30.03 846 24.98 18.2 64.8 50 7.7 45.9
23:30 1017 30.03 846 24.98 18.4 65.1 50 7.8 46.1
23:35 1017 30.03 846 24.98 18.3 64.9 50 7.7 45.9
23:40 1017 30.03 846 24.98 18.6 65.4 48 7.6 45.6
23:45 1017 30.03 846 24.98 18.8 65.9 48 7.8 46
23:50 1017 30.03 846 24.98 18.8 65.9 48 7.7 45.8
23:55 1017 30.03 846 24.98 18.9 65.9 48 7.9 46.2
24:00 1017 30.03 846 24.98 18.7 65.7 48 7.6 45.7